createdAt,value
2023-02-22T00:02:32.637Z,5.97
2023-02-22T00:07:58.678Z,5.97
2023-02-22T00:13:24.761Z,5.90
2023-02-22T00:18:46.739Z,5.81
2023-02-22T00:24:23.399Z,5.77
2023-02-22T00:29:46.580Z,5.75
2023-02-22T00:35:08.991Z,5.71
2023-02-22T00:40:33.530Z,5.68
2023-02-22T00:45:55.424Z,5.62
2023-02-22T00:51:19.701Z,5.53
2023-02-22T00:56:41.728Z,5.46
2023-02-22T01:02:04.322Z,5.42
2023-02-22T01:07:26.189Z,5.37
2023-02-22T01:12:48.557Z,5.36
2023-02-22T01:18:12.926Z,5.37
2023-02-22T01:23:34.821Z,5.37
2023-02-22T01:28:56.923Z,5.39
2023-02-22T01:34:22.294Z,5.37
2023-02-22T01:39:45.494Z,5.38
2023-02-22T01:45:35.825Z,5.37
2023-02-22T01:51:01.830Z,5.32
2023-02-22T01:56:26.220Z,5.22
2023-02-22T02:01:48.123Z,5.13
2023-02-22T02:07:13.306Z,4.99
2023-02-22T02:12:40.814Z,4.97
2023-02-22T02:18:13.102Z,4.77
2023-02-22T02:24:19.640Z,4.53
2023-02-22T02:29:44.418Z,4.61
2023-02-22T02:35:21.659Z,4.55
2023-02-22T02:40:54.260Z,4.64
2023-02-22T02:46:21.092Z,4.75
2023-02-22T02:51:52.968Z,4.80
2023-02-22T02:57:15.944Z,4.89
2023-02-22T03:02:59.120Z,4.98
2023-02-22T03:08:36.888Z,4.97
2023-02-22T03:14:27.120Z,4.94
2023-02-22T03:19:58.854Z,4.90
2023-02-22T03:25:25.729Z,4.75
2023-02-22T03:31:02.152Z,4.72
2023-02-22T03:36:56.540Z,4.67
2023-02-22T03:42:29.328Z,4.60
2023-02-22T03:48:17.770Z,4.55
2023-02-22T03:53:39.875Z,4.52
2023-02-22T03:59:09.630Z,4.52
2023-02-22T04:04:31.782Z,4.45
2023-02-22T04:09:54.126Z,4.26
2023-02-22T04:15:22.754Z,4.26
2023-02-22T04:20:46.479Z,4.28
2023-02-22T04:26:17.063Z,4.27
2023-02-22T04:31:46.834Z,4.27
2023-02-22T04:37:11.246Z,4.20
2023-02-22T04:42:33.465Z,4.07
2023-02-22T04:47:55.216Z,4.10
2023-02-22T04:53:17.221Z,4.06
2023-02-22T04:58:39.087Z,4.08
2023-02-22T05:04:04.047Z,4.09
2023-02-22T05:09:25.888Z,4.16
2023-02-22T05:14:48.360Z,4.25
2023-02-22T05:20:19.789Z,4.35
2023-02-22T05:25:41.960Z,4.36
2023-02-22T05:31:04.199Z,4.40
2023-02-22T05:36:26.108Z,4.46
2023-02-22T05:41:48.136Z,4.52
2023-02-22T05:47:12.170Z,4.56
2023-02-22T05:52:34.201Z,4.54
2023-02-22T05:57:56.227Z,4.63
2023-02-22T06:03:17.760Z,4.62
2023-02-22T06:08:39.696Z,4.42
2023-02-22T06:14:01.315Z,4.44
2023-02-22T06:19:24.146Z,4.56
2023-02-22T06:24:45.991Z,4.62
2023-02-22T06:30:08.729Z,4.59
2023-02-22T06:35:30.231Z,4.72
2023-02-22T06:40:52.165Z,4.70
2023-02-22T06:46:14.246Z,4.75
2023-02-22T06:51:37.327Z,4.83
2023-02-22T06:56:58.977Z,4.94
2023-02-22T07:02:23.599Z,5.14
2023-02-22T07:07:46.837Z,5.28
2023-02-22T07:13:09.471Z,5.45
2023-02-22T07:18:31.080Z,5.62
2023-02-22T07:23:55.030Z,5.61
2023-02-22T07:29:17.358Z,5.68
2023-02-22T07:34:39.193Z,5.77
2023-02-22T07:40:01.313Z,5.87
2023-02-22T07:45:25.321Z,6.00
2023-02-22T07:50:47.711Z,6.06
2023-02-22T07:56:09.722Z,6.09
2023-02-22T08:01:32.463Z,6.14
2023-02-22T08:06:54.285Z,6.16
2023-02-22T08:12:16.706Z,6.27
2023-02-22T08:17:38.740Z,6.37
2023-02-22T08:23:00.366Z,6.41
2023-02-22T08:28:24.513Z,6.49
2023-02-22T08:33:50.004Z,6.50
2023-02-22T08:39:11.775Z,6.57
2023-02-22T08:44:33.774Z,6.74
2023-02-22T08:49:56.028Z,6.91
2023-02-22T08:55:23.101Z,6.99
2023-02-22T09:00:45.316Z,7.14
2023-02-22T09:06:08.161Z,7.21
2023-02-22T09:11:30.465Z,7.14
2023-02-22T09:16:52.248Z,7.14
2023-02-22T09:22:14.029Z,7.24
2023-02-22T09:27:36.152Z,7.39
2023-02-22T09:33:01.439Z,7.53
2023-02-22T09:38:24.905Z,7.60
2023-02-22T09:43:58.664Z,7.81
2023-02-22T09:49:25.188Z,7.87
2023-02-22T09:54:53.297Z,7.91
2023-02-22T10:00:20.002Z,8.00
2023-02-22T10:05:46.572Z,8.03
2023-02-22T10:11:20.664Z,8.08
2023-02-22T10:17:06.375Z,8.09
2023-02-22T10:22:57.033Z,8.31
2023-02-22T10:28:31.883Z,8.39
2023-02-22T10:33:58.847Z,8.49
2023-02-22T10:39:34.134Z,8.55
2023-02-22T10:44:56.443Z,8.59
2023-02-22T10:50:20.963Z,8.60
2023-02-22T10:56:08.982Z,8.38
2023-02-22T11:01:40.818Z,8.52
2023-02-22T11:07:17.088Z,8.68
2023-02-22T11:12:42.526Z,8.87
2023-02-22T11:18:04.912Z,8.94
2023-02-22T11:23:26.943Z,8.97
2023-02-22T11:28:56.282Z,9.11
2023-02-22T11:34:39.971Z,9.14
2023-02-22T11:40:07.855Z,8.97
2023-02-22T11:45:29.980Z,8.70
2023-02-22T11:50:52.149Z,8.71
2023-02-22T11:56:37.249Z,8.78
2023-02-22T12:02:27.847Z,8.90
2023-02-22T12:08:13.739Z,9.10
2023-02-22T12:14:02.009Z,9.26
2023-02-22T12:19:41.778Z,9.35
2023-02-22T12:25:17.166Z,9.32
2023-02-22T12:30:44.829Z,9.34
2023-02-22T12:36:12.844Z,9.37
2023-02-22T12:41:42.415Z,9.32
2023-02-22T12:47:06.354Z,9.12
2023-02-22T12:52:46.848Z,8.91
2023-02-22T12:58:22.154Z,8.61
2023-02-22T13:03:44.870Z,8.76
2023-02-22T13:09:26.852Z,9.03
2023-02-22T13:14:51.993Z,9.38
2023-02-22T13:20:24.918Z,9.58
2023-02-22T13:25:58.868Z,9.68
2023-02-22T13:31:37.277Z,9.67
2023-02-22T13:37:35.722Z,9.63
2023-02-22T13:43:11.658Z,9.51
2023-02-22T13:49:12.269Z,9.53
2023-02-22T13:54:40.066Z,9.62
2023-02-22T14:00:23.640Z,9.64
2023-02-22T14:05:49.841Z,9.52
2023-02-22T14:11:15.566Z,9.44
2023-02-22T14:16:38.874Z,9.47
2023-02-22T14:22:05.983Z,9.37
2023-02-22T14:27:39.699Z,9.23
2023-02-22T14:33:02.245Z,9.23
2023-02-22T14:38:25.278Z,9.29
2023-02-22T14:43:47.004Z,9.29
2023-02-22T14:49:19.016Z,9.34
2023-02-22T14:55:22.366Z,9.35
2023-02-22T15:00:46.420Z,9.33
2023-02-22T15:06:18.445Z,9.28
2023-02-22T15:11:40.681Z,9.11
2023-02-22T15:17:14.195Z,8.91
2023-02-22T15:22:36.837Z,8.74
2023-02-22T15:28:03.942Z,8.59
2023-02-22T15:33:30.071Z,8.45
2023-02-22T15:38:57.723Z,8.34
2023-02-22T15:44:24.254Z,8.09
2023-02-22T15:50:08.590Z,7.80
2023-02-22T15:55:36.629Z,7.53
2023-02-22T16:01:04.085Z,7.33
2023-02-22T16:06:30.391Z,7.20
2023-02-22T16:12:22.554Z,7.05
2023-02-22T16:17:56.257Z,6.89
2023-02-22T16:23:24.314Z,6.73
2023-02-22T16:28:58.045Z,6.58
2023-02-22T16:34:19.688Z,6.49
2023-02-22T16:39:47.630Z,6.41
2023-02-22T16:45:16.180Z,6.30
2023-02-22T16:50:38.209Z,6.24
2023-02-22T16:56:03.950Z,6.19
2023-02-22T17:01:28.842Z,6.09
2023-02-22T17:06:50.928Z,5.96
2023-02-22T17:12:15.327Z,5.96
2023-02-22T17:17:37.180Z,5.85
2023-02-22T17:23:01.323Z,5.75
2023-02-22T17:28:24.799Z,5.62
2023-02-22T17:33:46.527Z,5.53
2023-02-22T17:39:10.817Z,5.42
2023-02-22T17:44:32.752Z,5.32
2023-02-22T17:49:54.284Z,5.26
2023-02-22T17:55:17.136Z,5.17
2023-02-22T18:00:38.970Z,5.13
2023-02-22T18:06:01.378Z,5.10
2023-02-22T18:11:26.625Z,5.05
2023-02-22T18:16:51.352Z,5.00
2023-02-22T18:22:12.978Z,5.01
2023-02-22T18:27:34.726Z,4.93
2023-02-22T18:32:56.737Z,4.95
2023-02-22T18:38:26.492Z,5.04
2023-02-22T18:43:50.911Z,5.12
2023-02-22T18:49:14.273Z,5.18
2023-02-22T18:54:38.602Z,5.25
2023-02-22T19:00:00.840Z,5.18
2023-02-22T19:05:25.093Z,4.93
2023-02-22T19:10:50.523Z,4.69
2023-02-22T19:16:13.913Z,4.60
2023-02-22T19:21:36.695Z,4.47
2023-02-22T19:27:00.149Z,4.30
2023-02-22T19:32:23.464Z,4.04
2023-02-22T19:37:47.085Z,3.82
2023-02-22T19:43:08.817Z,3.72
2023-02-22T19:48:30.948Z,3.74
2023-02-22T19:53:53.380Z,3.74
2023-02-22T19:59:17.210Z,3.67
2023-02-22T20:04:38.976Z,3.49
2023-02-22T20:10:02.893Z,3.37
2023-02-22T20:15:24.604Z,3.27
2023-02-22T20:20:47.233Z,3.19
2023-02-22T20:26:15.971Z,3.12
2023-02-22T20:31:42.924Z,3.06
2023-02-22T20:37:06.068Z,2.97
2023-02-22T20:42:30.220Z,2.96
2023-02-22T20:47:52.239Z,2.91
2023-02-22T20:53:14.267Z,2.80
2023-02-22T20:58:36.396Z,2.69
2023-02-22T21:04:01.080Z,2.62
2023-02-22T21:09:23.086Z,2.56
2023-02-22T21:14:45.212Z,2.50
2023-02-22T21:20:13.164Z,2.45
2023-02-22T21:25:35.185Z,2.38
2023-02-22T21:31:04.557Z,2.28
2023-02-22T21:36:28.475Z,2.23
2023-02-22T21:41:51.816Z,2.16
2023-02-22T21:47:13.536Z,2.15
2023-02-22T21:52:35.327Z,2.13
2023-02-22T21:57:56.905Z,2.11
2023-02-22T22:03:21.633Z,2.09
2023-02-22T22:08:46.153Z,2.08
2023-02-22T22:14:07.897Z,2.04
2023-02-22T22:19:30.843Z,1.98
2023-02-22T22:24:53.964Z,1.95
2023-02-22T22:30:17.090Z,1.89
2023-02-22T22:35:39.423Z,1.78
2023-02-22T22:41:05.708Z,1.71
2023-02-22T22:46:27.407Z,1.66
2023-02-22T22:51:49.359Z,1.61
2023-02-22T22:57:11.658Z,1.55
2023-02-22T23:02:33.897Z,1.53
2023-02-22T23:07:56.734Z,1.54
2023-02-22T23:13:20.055Z,1.55
2023-02-22T23:18:43.489Z,1.53
2023-02-22T23:24:09.033Z,1.49
2023-02-22T23:29:30.863Z,1.45
2023-02-22T23:34:53.092Z,1.42
2023-02-22T23:40:18.445Z,1.37
2023-02-22T23:45:40.217Z,1.35
2023-02-22T23:51:10.259Z,1.34
2023-02-22T23:56:32.146Z,1.34
